»·PEaware :: N4657 KMOD-KSBP

N4657 :: KMOD-KSBP

FLIGHT INFORMATION

Flight Status: Arrived
Operator: Privately registered:
United States
More flights under this callsign
Pilot: Daniel P. (20187)
Aircraft: PILATUS PC-12 EAGLE
(PC12)
More flights by this aircraft type
Origin: KMOD Modesto City-Co-Sham
United States
Destination: KSBP San Luis Co Regl
United States
More flights between these airports :: More routes between these airports
Route: PXN AVE
File this flight plan on PilotEdge
Remarks:
Altitude:
(Current/Filed)
11,500ft
Speed:
(Current/Filed)
200kts
Departed: 31-Aug-18 03:46 PM
Arrived: 31-Aug-18 04:45 PM
Distance/Time
Traveled:
144nm/0:59
Distance/Time
To Go:
Arrived

Flight Plot

Page will automatically refresh every two minutes.

Flight plan parsing failed; only flown route is shown


Map Options




Map Legend


Flown Route
Filed Route
Departure Airport
Arrival Airport
Navaid (VOR, NDB)
Fix

Horizontal Profiles

Position Reports

Time Latitude Longitude Heading Altitude Ground
Speed
31-Aug-18 15:39 37.625669 -120.950831 119 88ft 11kts
31-Aug-18 15:40 37.623403 -120.946629 122 86ft 14kts
31-Aug-18 15:41 37.621231 -120.942960 193 78ft 4kts
31-Aug-18 15:42 37.621203 -120.942970 198 78ft 0kts
31-Aug-18 15:44 37.621203 -120.942970 198 78ft 0kts
31-Aug-18 15:45 37.621203 -120.942970 198 78ft 0kts
31-Aug-18 15:46 37.621203 -120.942970 198 78ft 0kts
31-Aug-18 15:47 37.621203 -120.942970 198 78ft 0kts
31-Aug-18 15:48 37.621339 -120.944471 304 79ft 44kts
31-Aug-18 15:49 37.640795 -120.975230 341 1732ft 152kts
31-Aug-18 15:50 37.667347 -120.935352 107 3470ft 203kts
31-Aug-18 15:51 37.641858 -120.872206 154 5261ft 209kts
31-Aug-18 15:52 37.587847 -120.888157 202 7065ft 204kts
31-Aug-18 15:53 37.534716 -120.913499 202 8873ft 205kts
31-Aug-18 15:54 37.478395 -120.921459 176 10667ft 208kts
31-Aug-18 15:55 37.417902 -120.912082 172 11484ft 243kts
31-Aug-18 15:56 37.350163 -120.899355 171 11482ft 259kts
31-Aug-18 15:57 37.279498 -120.885832 171 11483ft 254kts
31-Aug-18 15:57 37.221411 -120.874697 171 11482ft 252kts
31-Aug-18 15:58 37.152093 -120.861435 171 11479ft 252kts
31-Aug-18 16:00 37.071326 -120.845992 171 11476ft 253kts
31-Aug-18 16:00 37.013218 -120.834913 172 11477ft 255kts
31-Aug-18 16:02 36.930759 -120.819247 172 11477ft 259kts
31-Aug-18 16:02 36.871842 -120.808079 172 11474ft 259kts
31-Aug-18 16:03 36.800574 -120.794575 172 11474ft 259kts
31-Aug-18 16:04 36.729372 -120.781107 172 11465ft 260kts
31-Aug-18 16:05 36.665431 -120.740621 147 11466ft 261kts
31-Aug-18 16:06 36.607567 -120.696484 148 11483ft 260kts
31-Aug-18 16:07 36.546099 -120.649893 148 11516ft 260kts
31-Aug-18 16:08 36.484312 -120.603163 148 11533ft 260kts
31-Aug-18 16:09 36.422494 -120.556491 148 11522ft 261kts
31-Aug-18 16:10 36.360704 -120.509933 148 11507ft 261kts
31-Aug-18 16:11 36.298583 -120.463212 148 11495ft 262kts
31-Aug-18 16:12 36.236232 -120.416403 148 11495ft 262kts
31-Aug-18 16:13 36.174180 -120.369912 148 11495ft 262kts
31-Aug-18 16:14 36.112453 -120.323749 148 11494ft 262kts
31-Aug-18 16:15 36.050506 -120.277525 148 11494ft 257kts
31-Aug-18 16:16 35.989685 -120.232203 148 11494ft 254kts
31-Aug-18 16:17 35.929447 -120.187385 148 11389ft 257kts
31-Aug-18 16:18 35.872592 -120.145257 148 10523ft 228kts
31-Aug-18 16:19 35.819241 -120.105674 149 9626ft 220kts
31-Aug-18 16:20 35.767167 -120.067134 149 8742ft 217kts
31-Aug-18 16:21 35.716659 -120.029819 149 7869ft 209kts
31-Aug-18 16:22 35.667987 -119.993900 149 7129ft 201kts
31-Aug-18 16:23 35.618225 -119.993970 240 6394ft 184kts
31-Aug-18 16:24 35.599041 -120.051245 242 5694ft 189kts
31-Aug-18 16:25 35.569222 -120.104623 237 5172ft 189kts
31-Aug-18 16:26 35.537884 -120.156259 236 4668ft 185kts
31-Aug-18 16:27 35.507333 -120.206111 236 4551ft 204kts
31-Aug-18 16:28 35.470985 -120.265146 236 4747ft 218kts
31-Aug-18 16:29 35.435191 -120.323175 237 4765ft 197kts
31-Aug-18 16:30 35.404714 -120.372519 239 4411ft 166kts
31-Aug-18 16:31 35.379541 -120.413197 241 3874ft 145kts
31-Aug-18 16:32 35.353142 -120.450268 216 3327ft 153kts
31-Aug-18 16:33 35.310972 -120.460899 198 2845ft 154kts
31-Aug-18 16:34 35.266901 -120.463672 174 3016ft 164kts
31-Aug-18 16:35 35.222740 -120.449006 168 3309ft 164kts
31-Aug-18 16:36 35.183940 -120.460714 169 3607ft 163kts
31-Aug-18 16:37 35.146163 -120.448447 172 3889ft 127kts
31-Aug-18 16:38 35.118617 -120.457800 282 3507ft 104kts
31-Aug-18 16:39 35.140275 -120.479670 315 2912ft 113kts
31-Aug-18 16:40 35.160822 -120.509586 309 2311ft 115kts
31-Aug-18 16:41 35.179490 -120.539792 307 1694ft 103kts
31-Aug-18 16:42 35.195668 -120.568029 307 1184ft 98kts
31-Aug-18 16:43 35.209802 -120.592770 308 1149ft 79kts
31-Aug-18 16:44 35.222524 -120.615424 311 809ft 79kts
31-Aug-18 16:45 35.233575 -120.634436 308 224ft 63kts
31-Aug-18 16:46 35.237317 -120.639955 9 191ft 0kts
31-Aug-18 16:47 35.237322 -120.639950 3 191ft 0kts
31-Aug-18 16:48 35.237749 -120.638552 279 197ft 0kts
31-Aug-18 16:49 35.237749 -120.638552 279 197ft 0kts
31-Aug-18 16:50 35.237749 -120.638552 279 197ft 0kts

Navigation Log

Ident Type
Flight plan parsing failed, navigation log unavailable